createdAt,value
2023-03-07T00:01:30.592Z,71.36
2023-03-07T00:04:00.653Z,71.57
2023-03-07T00:06:31.785Z,71.78
2023-03-07T00:09:03.027Z,71.72
2023-03-07T00:11:31.630Z,71.63
2023-03-07T00:14:11.203Z,71.54
2023-03-07T00:16:39.925Z,71.50
2023-03-07T00:19:09.931Z,71.41
2023-03-07T00:21:39.025Z,71.48
2023-03-07T00:24:10.382Z,71.54
2023-03-07T00:26:39.268Z,71.48
2023-03-07T00:29:09.698Z,71.50
2023-03-07T00:31:39.004Z,71.54
2023-03-07T00:34:07.527Z,71.58
2023-03-07T00:36:36.244Z,71.58
2023-03-07T00:39:08.232Z,71.52
2023-03-07T00:41:39.164Z,71.68
2023-03-07T00:44:07.729Z,71.66
2023-03-07T00:46:38.689Z,71.77
2023-03-07T00:49:07.746Z,71.76
2023-03-07T00:51:36.022Z,71.67
2023-03-07T00:54:05.337Z,71.73
2023-03-07T00:56:34.824Z,71.77
2023-03-07T00:59:03.953Z,71.94
2023-03-07T01:01:32.525Z,71.81
2023-03-07T01:04:01.542Z,71.72
2023-03-07T01:06:33.361Z,71.69
2023-03-07T01:09:06.866Z,71.74
2023-03-07T01:11:37.791Z,71.79
2023-03-07T01:14:06.965Z,71.78
2023-03-07T01:16:38.701Z,71.64
2023-03-07T01:19:12.520Z,71.47
2023-03-07T01:21:43.323Z,71.44
2023-03-07T01:24:15.168Z,71.57
2023-03-07T01:26:44.230Z,71.59
2023-03-07T01:29:15.773Z,71.69
2023-03-07T01:31:44.334Z,71.68
2023-03-07T01:34:12.784Z,71.73
2023-03-07T01:36:43.023Z,71.67
2023-03-07T01:39:17.275Z,71.40
2023-03-07T01:42:12.111Z,71.51
2023-03-07T01:45:10.820Z,71.59
2023-03-07T01:47:49.418Z,71.46
2023-03-07T01:50:18.635Z,71.05
2023-03-07T01:53:00.123Z,71.15
2023-03-07T01:55:34.736Z,71.48
2023-03-07T01:58:14.561Z,71.48
2023-03-07T02:00:44.891Z,71.53
2023-03-07T02:03:37.258Z,71.44
2023-03-07T02:06:21.103Z,71.31
2023-03-07T02:08:51.330Z,70.71
2023-03-07T02:11:24.712Z,71.04
2023-03-07T02:13:56.363Z,71.02
2023-03-07T02:16:25.633Z,71.07
2023-03-07T02:18:55.380Z,71.25
2023-03-07T02:21:54.781Z,71.28
2023-03-07T02:24:49.778Z,71.42
2023-03-07T02:27:18.574Z,71.28
2023-03-07T02:29:47.044Z,71.38
2023-03-07T02:32:17.265Z,71.73
2023-03-07T02:34:48.797Z,72.00
2023-03-07T02:37:32.937Z,71.86
2023-03-07T02:40:09.112Z,71.46
2023-03-07T02:42:42.285Z,71.38
2023-03-07T02:45:18.593Z,71.40
2023-03-07T02:47:47.643Z,71.39
2023-03-07T02:50:18.330Z,71.74
2023-03-07T02:52:50.000Z,71.84
2023-03-07T02:55:18.875Z,71.58
2023-03-07T02:57:54.523Z,71.53
2023-03-07T03:00:23.623Z,71.67
2023-03-07T03:03:08.377Z,71.83
2023-03-07T03:05:40.535Z,71.79
2023-03-07T03:08:09.314Z,71.58
2023-03-07T03:10:38.523Z,71.77
2023-03-07T03:13:10.970Z,71.86
2023-03-07T03:15:40.014Z,71.95
2023-03-07T03:18:08.706Z,72.12
2023-03-07T03:20:40.619Z,72.08
2023-03-07T03:23:10.800Z,72.14
2023-03-07T03:25:40.254Z,72.21
2023-03-07T03:28:10.114Z,72.48
2023-03-07T03:30:39.914Z,72.49
2023-03-07T03:33:08.696Z,72.41
2023-03-07T03:35:39.590Z,72.33
2023-03-07T03:38:08.527Z,72.36
2023-03-07T03:40:38.939Z,72.46
2023-03-07T03:43:07.635Z,72.44
2023-03-07T03:45:37.944Z,72.39
2023-03-07T03:48:07.999Z,72.69
2023-03-07T03:50:38.814Z,72.91
2023-03-07T03:53:07.205Z,73.21
2023-03-07T03:55:35.567Z,73.31
2023-03-07T03:58:04.244Z,73.24
2023-03-07T04:00:34.005Z,73.17
2023-03-07T04:03:03.038Z,73.20
2023-03-07T04:05:34.805Z,73.29
2023-03-07T04:08:03.515Z,73.42
2023-03-07T04:10:32.593Z,73.36
2023-03-07T04:13:01.176Z,73.28
2023-03-07T04:15:30.185Z,73.32
2023-03-07T04:17:59.278Z,73.16
2023-03-07T04:20:27.831Z,72.79
2023-03-07T04:22:56.525Z,72.91
2023-03-07T04:25:25.620Z,72.84
2023-03-07T04:27:56.764Z,73.07
2023-03-07T04:30:25.964Z,73.03
2023-03-07T04:32:55.161Z,72.91
2023-03-07T04:35:23.849Z,72.80
2023-03-07T04:37:53.473Z,72.89
2023-03-07T04:40:22.055Z,73.05
2023-03-07T04:42:50.725Z,73.07
2023-03-07T04:45:21.047Z,73.20
2023-03-07T04:47:49.935Z,73.25
2023-03-07T04:50:20.462Z,73.35
2023-03-07T04:52:50.267Z,73.31
2023-03-07T04:55:19.685Z,73.51
2023-03-07T04:57:51.018Z,73.58
2023-03-07T05:00:20.624Z,73.70
2023-03-07T05:02:50.757Z,73.87
2023-03-07T05:05:22.737Z,74.20
2023-03-07T05:07:51.813Z,74.15
2023-03-07T05:10:21.382Z,74.21
2023-03-07T05:12:51.124Z,74.23
2023-03-07T05:15:19.794Z,74.42
2023-03-07T05:17:48.514Z,74.42
2023-03-07T05:20:17.274Z,74.50
2023-03-07T05:22:46.462Z,74.66
2023-03-07T05:25:18.233Z,74.68
2023-03-07T05:27:47.444Z,74.76
2023-03-07T05:30:16.645Z,74.77
2023-03-07T05:32:47.393Z,74.80
2023-03-07T05:35:23.908Z,74.90
2023-03-07T05:37:53.951Z,74.94
2023-03-07T05:40:22.640Z,75.03
2023-03-07T05:42:51.870Z,74.98
2023-03-07T05:45:22.290Z,74.98
2023-03-07T05:47:56.182Z,75.15
2023-03-07T05:50:43.516Z,75.19
2023-03-07T05:53:19.698Z,75.43
2023-03-07T05:55:56.624Z,75.53
2023-03-07T05:58:33.738Z,75.43
2023-03-07T06:01:19.471Z,75.45
2023-03-07T06:03:51.529Z,75.57
2023-03-07T06:06:33.592Z,75.73
2023-03-07T06:09:11.983Z,75.80
2023-03-07T06:11:43.945Z,75.98
2023-03-07T06:14:12.962Z,76.05
2023-03-07T06:16:47.239Z,76.02
2023-03-07T06:19:20.436Z,76.14
2023-03-07T06:21:56.062Z,76.25
2023-03-07T06:24:25.076Z,76.20
2023-03-07T06:26:55.399Z,76.26
2023-03-07T06:29:27.465Z,76.37
2023-03-07T06:32:00.061Z,76.30
2023-03-07T06:34:28.924Z,76.38
2023-03-07T06:36:59.652Z,76.44
2023-03-07T06:39:31.513Z,76.51
2023-03-07T06:42:07.289Z,76.48
2023-03-07T06:44:36.566Z,76.50
2023-03-07T06:47:05.474Z,76.70
2023-03-07T06:49:48.298Z,76.70
2023-03-07T06:52:17.580Z,76.69
2023-03-07T06:54:51.692Z,76.68
2023-03-07T06:57:25.612Z,76.89
2023-03-07T06:59:58.701Z,77.10
2023-03-07T07:02:37.748Z,77.25
2023-03-07T07:05:10.301Z,77.09
2023-03-07T07:07:46.358Z,77.09
2023-03-07T07:10:18.409Z,76.86
2023-03-07T07:12:47.510Z,76.78
2023-03-07T07:15:21.221Z,76.87
2023-03-07T07:17:51.575Z,76.65
2023-03-07T07:20:21.058Z,76.80
2023-03-07T07:22:52.597Z,76.66
2023-03-07T07:25:21.776Z,76.73
2023-03-07T07:27:58.574Z,76.55
2023-03-07T07:30:27.656Z,76.37
2023-03-07T07:33:01.416Z,76.32
2023-03-07T07:35:37.152Z,76.56
2023-03-07T07:38:11.626Z,76.56
2023-03-07T07:40:44.931Z,76.59
2023-03-07T07:43:18.234Z,76.44
2023-03-07T07:45:51.151Z,76.13
2023-03-07T07:48:24.613Z,76.04
2023-03-07T07:51:03.753Z,76.17
2023-03-07T07:53:37.842Z,76.27
2023-03-07T07:56:09.906Z,76.21
2023-03-07T07:58:44.740Z,76.20
2023-03-07T08:01:15.792Z,76.52
2023-03-07T08:03:48.028Z,77.02
2023-03-07T08:06:31.072Z,76.98
2023-03-07T08:09:05.200Z,76.45
2023-03-07T08:11:36.954Z,76.61
2023-03-07T08:14:05.733Z,76.91
2023-03-07T08:16:39.327Z,76.25
2023-03-07T08:19:09.930Z,75.44
2023-03-07T08:21:46.165Z,74.65
2023-03-07T08:24:18.334Z,74.56
2023-03-07T08:26:48.625Z,73.20
2023-03-07T08:29:19.949Z,72.36
2023-03-07T08:31:51.503Z,71.33
2023-03-07T08:34:21.027Z,69.61
2023-03-07T08:36:52.989Z,69.63
2023-03-07T08:39:26.487Z,69.87
2023-03-07T08:41:56.504Z,69.47
2023-03-07T08:44:27.549Z,68.15
2023-03-07T08:47:04.487Z,67.88
2023-03-07T08:49:36.493Z,67.45
2023-03-07T08:52:05.888Z,67.53
2023-03-07T08:54:37.179Z,67.41
2023-03-07T08:57:08.531Z,66.64
2023-03-07T08:59:43.494Z,64.63
2023-03-07T09:02:12.292Z,63.41
2023-03-07T09:04:42.015Z,63.44
2023-03-07T09:07:18.991Z,62.96
2023-03-07T09:09:52.948Z,62.19
2023-03-07T09:12:24.973Z,62.00
2023-03-07T09:14:54.973Z,61.43
2023-03-07T09:17:31.593Z,60.58
2023-03-07T09:20:10.853Z,59.87
2023-03-07T09:22:42.492Z,60.70
2023-03-07T09:25:11.782Z,61.21
2023-03-07T09:27:45.361Z,59.41
2023-03-07T09:30:15.347Z,57.85
2023-03-07T09:32:46.272Z,58.02
2023-03-07T09:35:15.879Z,59.12
2023-03-07T09:37:44.973Z,59.34
2023-03-07T09:40:25.501Z,58.67
2023-03-07T09:43:23.060Z,58.53
2023-03-07T09:46:54.644Z,57.05
2023-03-07T09:49:51.151Z,56.72
2023-03-07T09:52:41.193Z,57.04
2023-03-07T09:55:17.629Z,57.12
2023-03-07T09:58:06.241Z,57.45
2023-03-07T10:00:45.647Z,56.26
2023-03-07T10:03:40.500Z,54.95
2023-03-07T10:06:39.408Z,54.40
2023-03-07T10:09:26.566Z,53.96
2023-03-07T10:12:31.807Z,53.51
2023-03-07T10:15:30.307Z,53.59
2023-03-07T10:18:28.794Z,53.50
2023-03-07T10:21:39.033Z,53.24
2023-03-07T10:24:56.838Z,53.32
2023-03-07T10:27:38.321Z,53.71
2023-03-07T10:30:17.658Z,54.01
2023-03-07T10:33:01.327Z,53.69
2023-03-07T10:35:42.822Z,53.36
2023-03-07T10:38:34.358Z,52.72
2023-03-07T10:41:17.127Z,51.76
2023-03-07T10:43:52.395Z,51.92
2023-03-07T10:46:29.556Z,51.28
2023-03-07T10:49:09.801Z,49.99
2023-03-07T10:52:37.071Z,49.54
2023-03-07T10:55:42.174Z,49.27
2023-03-07T10:58:25.861Z,49.39
2023-03-07T11:01:07.864Z,49.90
2023-03-07T11:03:58.697Z,50.54
2023-03-07T11:06:38.619Z,51.14
2023-03-07T11:09:25.284Z,51.52
2023-03-07T11:12:19.864Z,52.06
2023-03-07T11:15:22.745Z,52.35
2023-03-07T11:17:52.402Z,52.63
2023-03-07T11:20:24.026Z,52.71
2023-03-07T11:23:31.667Z,52.71
2023-03-07T11:26:24.713Z,52.90
2023-03-07T11:29:11.902Z,53.26
2023-03-07T11:32:02.408Z,53.58
2023-03-07T11:35:01.923Z,54.08
2023-03-07T11:38:16.340Z,54.40
2023-03-07T11:41:40.646Z,54.61
2023-03-07T11:45:09.826Z,54.95
2023-03-07T11:48:14.373Z,55.26
2023-03-07T11:50:53.412Z,55.48
2023-03-07T11:54:02.635Z,55.86
2023-03-07T11:56:38.158Z,56.02
2023-03-07T11:59:36.967Z,56.29
2023-03-07T12:02:46.280Z,56.20
2023-03-07T12:05:58.554Z,56.24
2023-03-07T12:08:56.020Z,56.30
2023-03-07T12:11:59.729Z,56.46
2023-03-07T12:14:30.857Z,56.48
2023-03-07T12:17:22.158Z,56.61
2023-03-07T12:20:28.949Z,56.55
2023-03-07T12:23:24.346Z,56.84
2023-03-07T12:26:03.534Z,56.88
2023-03-07T12:28:52.607Z,56.72
2023-03-07T12:31:36.209Z,56.76
2023-03-07T12:34:13.977Z,56.57
2023-03-07T12:37:07.000Z,56.65
2023-03-07T12:39:45.266Z,56.76
2023-03-07T12:42:44.815Z,56.64
2023-03-07T12:45:31.491Z,56.61
2023-03-07T12:48:26.137Z,56.59
2023-03-07T12:51:41.901Z,56.39
2023-03-07T12:54:53.587Z,56.60
2023-03-07T12:57:59.220Z,56.64
2023-03-07T13:01:07.286Z,56.29
2023-03-07T13:04:23.468Z,56.04
2023-03-07T13:07:34.612Z,55.99
2023-03-07T13:10:09.160Z,55.96
2023-03-07T13:12:41.193Z,55.86
2023-03-07T13:15:28.547Z,55.70
2023-03-07T13:18:37.768Z,55.46
2023-03-07T13:21:41.143Z,55.26
2023-03-07T13:24:40.146Z,55.40
2023-03-07T13:27:56.972Z,55.49
2023-03-07T13:30:37.493Z,55.22
2023-03-07T13:33:40.617Z,55.20
2023-03-07T13:36:51.647Z,55.27
2023-03-07T13:40:02.589Z,55.23
2023-03-07T13:42:52.500Z,55.31
2023-03-07T13:46:10.929Z,54.87
2023-03-07T13:49:02.041Z,54.73
2023-03-07T13:51:34.540Z,54.42
2023-03-07T13:54:13.806Z,54.45
2023-03-07T13:56:46.061Z,54.41
2023-03-07T13:59:27.495Z,54.08
2023-03-07T14:02:03.976Z,54.12
2023-03-07T14:04:53.910Z,54.02
2023-03-07T14:07:26.325Z,54.23
2023-03-07T14:10:19.538Z,54.12
2023-03-07T14:13:29.860Z,54.08
2023-03-07T14:16:07.713Z,54.16
2023-03-07T14:18:54.123Z,54.16
2023-03-07T14:22:08.566Z,54.26
2023-03-07T14:25:04.875Z,54.26
2023-03-07T14:28:00.348Z,54.24
2023-03-07T14:30:34.016Z,54.19
2023-03-07T14:33:03.640Z,54.31
2023-03-07T14:35:47.724Z,54.29
2023-03-07T14:38:36.530Z,54.27
2023-03-07T14:41:45.769Z,54.45
2023-03-07T14:44:40.596Z,54.62
2023-03-07T14:47:39.769Z,54.78
2023-03-07T14:51:00.235Z,55.03
2023-03-07T14:53:55.864Z,55.14
2023-03-07T14:56:34.953Z,55.20
2023-03-07T14:59:25.892Z,55.32
2023-03-07T15:01:59.755Z,55.12
2023-03-07T15:04:45.022Z,55.28
2023-03-07T15:07:25.045Z,55.21
2023-03-07T15:09:55.387Z,55.17
2023-03-07T15:12:34.664Z,54.99
2023-03-07T15:15:07.553Z,54.88
2023-03-07T15:17:44.876Z,54.82
2023-03-07T15:20:25.837Z,54.78
2023-03-07T15:23:08.591Z,54.79
2023-03-07T15:25:47.992Z,54.91
2023-03-07T15:28:28.505Z,54.87
2023-03-07T15:31:02.460Z,54.78
2023-03-07T15:33:39.287Z,54.84
2023-03-07T15:36:15.581Z,55.11
2023-03-07T15:38:52.590Z,55.33
2023-03-07T15:41:36.297Z,55.40
2023-03-07T15:44:32.706Z,55.70
2023-03-07T15:47:26.461Z,55.99
2023-03-07T15:50:35.690Z,56.02
2023-03-07T15:53:30.940Z,56.06
2023-03-07T16:00:30.300Z,56.11
2023-03-07T16:03:42.767Z,56.09
2023-03-07T16:06:47.536Z,56.19
2023-03-07T16:09:48.706Z,56.28
2023-03-07T16:12:53.661Z,56.24
2023-03-07T16:15:43.390Z,56.26
2023-03-07T16:18:47.683Z,56.32
2023-03-07T16:21:27.784Z,56.47
2023-03-07T16:24:04.263Z,56.51
2023-03-07T16:26:36.018Z,56.70
2023-03-07T16:29:39.884Z,56.96
2023-03-07T16:32:18.398Z,57.32
2023-03-07T16:35:04.339Z,57.55
2023-03-07T16:37:50.682Z,57.91
2023-03-07T16:40:26.095Z,58.18
2023-03-07T16:43:09.898Z,58.37
2023-03-07T16:46:00.530Z,58.60
2023-03-07T16:48:48.690Z,58.80
2023-03-07T16:51:30.815Z,58.92
2023-03-07T16:54:08.636Z,59.30
2023-03-07T16:56:48.997Z,59.45
2023-03-07T16:59:35.529Z,59.56
2023-03-07T17:02:24.691Z,59.70
2023-03-07T17:04:53.554Z,60.02
2023-03-07T17:07:23.944Z,59.91
2023-03-07T17:09:53.701Z,59.96
2023-03-07T17:12:29.891Z,59.87
2023-03-07T17:15:00.822Z,59.88
2023-03-07T17:17:37.112Z,59.95
2023-03-07T17:20:20.130Z,59.94
2023-03-07T17:22:53.642Z,60.04
2023-03-07T17:25:23.265Z,60.13
2023-03-07T17:28:05.909Z,60.13
2023-03-07T17:30:35.108Z,60.14
2023-03-07T17:33:06.233Z,60.03
2023-03-07T17:35:35.515Z,59.99
2023-03-07T17:38:04.479Z,60.08
2023-03-07T17:40:39.939Z,60.04
2023-03-07T17:43:11.300Z,60.01
2023-03-07T17:45:43.085Z,59.94
2023-03-07T17:48:16.188Z,59.86
2023-03-07T17:50:46.025Z,59.83
2023-03-07T17:53:27.551Z,59.74
2023-03-07T17:56:20.799Z,59.85
2023-03-07T18:02:06.380Z,59.68
2023-03-07T18:04:41.198Z,59.67
2023-03-07T18:07:27.618Z,59.63
2023-03-07T18:10:08.181Z,59.52
2023-03-07T18:12:55.819Z,59.41
2023-03-07T18:15:25.951Z,59.33
2023-03-07T18:17:58.186Z,59.12
2023-03-07T18:20:35.631Z,59.01
2023-03-07T18:23:22.685Z,59.01
2023-03-07T18:26:00.348Z,58.97
2023-03-07T18:28:43.179Z,59.01
2023-03-07T18:31:20.134Z,58.98
2023-03-07T18:33:56.554Z,58.78
2023-03-07T18:36:36.374Z,58.82
2023-03-07T18:39:23.717Z,58.74
2023-03-07T18:42:04.189Z,58.67
2023-03-07T18:44:47.642Z,58.55
2023-03-07T18:47:25.601Z,58.58
2023-03-07T18:50:10.287Z,58.54
2023-03-07T18:52:48.904Z,58.43
2023-03-07T18:55:25.957Z,58.40
2023-03-07T18:58:04.514Z,58.37
2023-03-07T19:00:37.227Z,58.32
2023-03-07T19:03:13.879Z,58.16
2023-03-07T19:05:46.973Z,58.03
2023-03-07T19:08:23.890Z,57.88
2023-03-07T19:11:00.726Z,57.81
2023-03-07T19:13:44.439Z,57.79
2023-03-07T19:16:24.230Z,57.79
2023-03-07T19:18:56.473Z,57.71
2023-03-07T19:21:51.463Z,57.70
2023-03-07T19:24:46.860Z,57.61
2023-03-07T19:27:20.775Z,57.58
2023-03-07T19:30:14.766Z,57.52
2023-03-07T19:36:26.834Z,57.51
2023-03-07T19:39:37.903Z,57.50
2023-03-07T19:42:25.597Z,57.66
2023-03-07T19:48:31.003Z,57.45
2023-03-07T19:51:25.612Z,58.02
2023-03-07T19:54:06.826Z,58.89
2023-03-07T19:56:59.775Z,59.86
2023-03-07T19:59:57.716Z,60.76
2023-03-07T20:03:30.227Z,61.40
2023-03-07T20:06:15.205Z,62.00
2023-03-07T20:08:54.139Z,62.58
2023-03-07T20:11:31.432Z,63.03
2023-03-07T20:14:12.592Z,63.37
2023-03-07T20:17:15.052Z,63.72
2023-03-07T20:19:54.871Z,64.08
2023-03-07T20:22:51.436Z,64.30
2023-03-07T20:25:37.657Z,64.65
2023-03-07T20:28:21.009Z,64.93
2023-03-07T20:31:02.479Z,65.10
2023-03-07T20:33:46.820Z,65.39
2023-03-07T20:37:02.471Z,65.43
2023-03-07T20:39:40.272Z,65.75
2023-03-07T20:42:19.182Z,65.91
2023-03-07T20:44:59.761Z,66.15
2023-03-07T20:47:44.827Z,66.04
2023-03-07T20:50:32.995Z,66.17
2023-03-07T20:53:26.688Z,66.30
2023-03-07T20:56:07.639Z,66.50
2023-03-07T20:58:50.205Z,66.30
2023-03-07T21:01:41.723Z,66.21
2023-03-07T21:04:26.968Z,66.31
2023-03-07T21:07:11.529Z,66.39
2023-03-07T21:10:00.539Z,66.34
2023-03-07T21:12:36.218Z,66.40
2023-03-07T21:15:30.168Z,66.51
2023-03-07T21:18:10.196Z,66.59
2023-03-07T21:20:48.433Z,66.43
2023-03-07T21:28:09.781Z,66.64
2023-03-07T21:31:04.923Z,66.69
2023-03-07T21:33:53.550Z,66.60
2023-03-07T21:36:34.562Z,66.58
2023-03-07T21:39:14.164Z,66.44
2023-03-07T21:42:06.161Z,66.59
2023-03-07T21:44:43.295Z,66.75
2023-03-07T21:47:23.342Z,66.71
2023-03-07T21:50:01.993Z,66.58
2023-03-07T21:52:47.749Z,66.71
2023-03-07T21:55:33.518Z,66.79
2023-03-07T21:58:16.034Z,66.82
2023-03-07T22:01:03.090Z,66.67
2023-03-07T22:03:41.426Z,66.54
2023-03-07T22:06:18.244Z,66.56
2023-03-07T22:08:53.009Z,66.66
2023-03-07T22:11:27.022Z,66.82
2023-03-07T22:14:00.622Z,66.89
2023-03-07T22:16:37.207Z,67.10
2023-03-07T22:19:08.605Z,66.98
2023-03-07T22:21:37.157Z,67.04
2023-03-07T22:24:06.104Z,67.27
2023-03-07T22:26:38.283Z,67.54
2023-03-07T22:29:13.591Z,67.28
2023-03-07T22:31:53.031Z,67.37
2023-03-07T22:34:37.162Z,67.57
2023-03-07T22:37:24.908Z,67.58
2023-03-07T22:40:08.981Z,67.67
2023-03-07T22:42:37.891Z,67.61
2023-03-07T22:45:07.786Z,67.69
2023-03-07T22:47:44.686Z,67.82
2023-03-07T22:50:20.304Z,67.82
2023-03-07T22:53:04.141Z,67.99
2023-03-07T22:55:33.455Z,68.05
2023-03-07T22:58:11.553Z,68.23
2023-03-07T23:00:55.369Z,68.29
2023-03-07T23:03:36.518Z,68.42
2023-03-07T23:06:09.259Z,68.54
2023-03-07T23:08:40.184Z,68.61
2023-03-07T23:11:14.164Z,68.69
2023-03-07T23:13:43.037Z,68.85
2023-03-07T23:16:18.237Z,68.84
2023-03-07T23:18:51.114Z,68.86
2023-03-07T23:21:28.922Z,68.92
2023-03-07T23:24:02.949Z,69.02
2023-03-07T23:26:36.626Z,69.12
2023-03-07T23:29:07.379Z,69.24
2023-03-07T23:31:40.578Z,69.36
2023-03-07T23:34:22.831Z,69.50
2023-03-07T23:36:58.454Z,69.73
2023-03-07T23:39:30.989Z,69.65
2023-03-07T23:42:06.370Z,69.65
2023-03-07T23:44:39.569Z,69.84
2023-03-07T23:47:11.781Z,69.92
2023-03-07T23:49:53.860Z,69.99
2023-03-07T23:52:29.512Z,70.06
2023-03-07T23:54:58.980Z,70.38
2023-03-07T23:57:32.872Z,70.57
